Time;durP1;ratioP1;P1;durP2;ratioP2;P2;SDS_P1;SDS_P2;PMS_P1;PMS_P2;Temp;Humidity;BMP_temperature;BMP_pressure;BME280_temperature;BME280_humidity;BME280_pressure;Samples;Min_cycle;Max_cycle;Signal;HPM_P1;HPM_P2
2022/02/22 00:00:46;;;;;;;37.63;8.55;;;;;;;6.08;92.34;101627.13;5033463;28;20476;-45
2022/02/22 00:03:13;;;;;;;43.22;9.00;;;;;;;6.08;92.33;101627.94;5030858;28;20463;-44
2022/02/22 00:05:42;;;;;;;36.13;8.23;;;;;;;6.10;92.58;101619.63;5026768;28;20420;-45
2022/02/22 00:08:10;;;;;;;38.22;8.23;;;;;;;6.08;92.11;101622.53;5031864;28;20144;-47
2022/02/22 00:10:38;;;;;;;38.33;8.10;;;;;;;6.07;92.12;101630.88;5033391;28;20091;-43
2022/02/22 00:13:05;;;;;;;33.15;8.38;;;;;;;6.07;92.37;101649.81;5032182;28;20049;-47
2022/02/22 00:15:33;;;;;;;34.22;7.63;;;;;;;6.05;91.54;101649.19;5031319;28;20052;-46
2022/02/22 00:18:01;;;;;;;37.13;8.13;;;;;;;6.03;91.96;101651.28;5032279;28;20045;-45
2022/02/22 00:20:29;;;;;;;43.40;8.40;;;;;;;6.01;91.75;101648.78;5032414;28;20244;-46
2022/02/22 00:22:57;;;;;;;37.80;8.60;;;;;;;6.01;91.98;101643.38;5033231;28;20052;-45
2022/02/22 00:25:24;;;;;;;34.47;8.27;;;;;;;6.00;91.71;101649.03;5030248;28;20124;-44
2022/02/22 00:27:52;;;;;;;38.13;7.88;;;;;;;5.98;91.68;101650.06;5031561;28;20045;-46
2022/02/22 00:30:20;;;;;;;45.25;8.00;;;;;;;5.97;91.66;101642.19;5033077;28;20073;-46
2022/02/22 00:32:47;;;;;;;35.67;7.93;;;;;;;5.96;91.55;101654.88;5033466;28;20415;-45
2022/02/22 00:35:15;;;;;;;36.60;8.82;;;;;;;5.95;91.51;101666.72;5018464;28;20140;-40
2022/02/22 00:37:43;;;;;;;36.63;8.32;;;;;;;5.94;91.87;101658.81;5025561;28;20057;-41
2022/02/22 00:40:12;;;;;;;37.08;7.85;;;;;;;5.94;91.97;101658.81;5039845;28;20424;-42
2022/02/22 00:42:41;;;;;;;37.90;8.23;;;;;;;5.94;91.59;101665.09;5038688;28;20492;-42
2022/02/22 00:45:09;;;;;;;43.83;8.80;;;;;;;5.92;91.80;101672.53;5037892;28;20124;-41
2022/02/22 00:47:38;;;;;;;33.55;7.28;;;;;;;5.93;91.64;101671.50;5037780;28;20085;-42
2022/02/22 00:50:07;;;;;;;37.00;8.75;;;;;;;5.90;91.26;101680.03;5039880;28;20423;-45
2022/02/22 00:52:34;;;;;;;34.83;8.57;;;;;;;5.89;91.20;101678.41;5039582;28;20053;-45
2022/02/22 00:55:03;;;;;;;34.50;7.93;;;;;;;5.86;91.43;101689.63;5022952;28;20040;-47
2022/02/22 00:57:31;;;;;;;39.35;7.90;;;;;;;5.84;91.46;101691.72;5025798;28;20046;-43
2022/02/22 00:59:58;;;;;;;40.95;8.38;;;;;;;5.83;91.28;101703.59;5038587;28;20052;-47
2022/02/22 01:02:26;;;;;;;38.70;8.23;;;;;;;5.80;91.25;101704.03;5038308;28;20065;-47
2022/02/22 01:04:56;;;;;;;33.38;7.45;;;;;;;5.80;91.32;101704.03;5037978;28;20049;-42
2022/02/22 01:07:24;;;;;;;41.05;8.77;;;;;;;5.78;91.35;101700.69;5037753;28;20118;-43
2022/02/22 01:09:51;;;;;;;32.63;7.65;;;;;;;5.76;91.19;101700.06;5040440;28;20148;-44
2022/02/22 01:12:19;;;;;;;37.53;7.50;;;;;;;5.76;91.11;101721.72;5039924;28;20041;-45
2022/02/22 01:14:46;;;;;;;34.45;7.47;;;;;;;5.78;91.32;101718.81;5024127;28;20125;-43
2022/02/22 01:17:14;;;;;;;40.25;8.13;;;;;;;5.79;91.14;101707.75;5021770;28;20065;-44
2022/02/22 01:19:42;;;;;;;35.90;7.82;;;;;;;5.81;91.14;101708.38;5039046;28;20120;-45
2022/02/22 01:22:10;;;;;;;36.55;8.07;;;;;;;5.83;91.11;101714.41;5039548;28;20073;-46
2022/02/22 01:24:38;;;;;;;33.75;8.02;;;;;;;5.83;90.97;101722.50;5037674;28;20128;-45
2022/02/22 01:27:06;;;;;;;30.83;8.18;;;;;;;5.84;91.03;101718.75;5036362;28;20079;-44
2022/02/22 01:29:34;;;;;;;39.80;7.72;;;;;;;5.84;90.73;101713.34;5019658;28;20034;-45
2022/02/22 01:32:04;;;;;;;33.20;7.75;;;;;;;5.85;91.05;101704.19;5019504;28;20042;-44
2022/02/22 01:34:32;;;;;;;34.47;7.35;;;;;;;5.85;90.71;101704.19;5033757;28;20372;-46
2022/02/22 01:36:59;;;;;;;39.88;7.88;;;;;;;5.82;90.37;101711.91;5034240;28;20051;-46
2022/02/22 01:39:27;;;;;;;37.85;8.55;;;;;;;5.79;90.60;101721.28;5030410;28;20148;-45
2022/02/22 01:41:55;;;;;;;36.08;7.55;;;;;;;5.74;90.95;101710.28;5039052;28;20052;-46
2022/02/22 01:44:23;;;;;;;35.13;8.13;;;;;;;5.74;90.96;101711.09;5037560;28;20124;-45
2022/02/22 01:46:59;;;;;;;34.65;7.88;;;;;;;5.74;90.99;101718.38;5035810;28;20400;-46
2022/02/22 01:49:27;;;;;;;36.57;7.57;;;;;;;5.74;91.27;101729.19;5017146;28;20046;-47
2022/02/22 01:51:54;;;;;;;30.52;7.05;;;;;;;5.72;91.45;101726.72;5016494;28;20303;-45
2022/02/22 01:54:23;;;;;;;30.58;7.35;;;;;;;5.72;91.59;101713.22;5016338;28;20057;-44
2022/02/22 01:56:51;;;;;;;37.33;7.45;;;;;;;5.73;91.40;101716.72;5016236;28;20046;-45
2022/02/22 01:59:22;;;;;;;34.85;8.05;;;;;;;5.74;91.63;101712.97;5012598;28;20125;-43
2022/02/22 02:01:50;;;;;;;34.28;8.10;;;;;;;5.73;91.35;101712.16;5016133;28;20129;-45
2022/02/22 02:04:17;;;;;;;31.77;7.22;;;;;;;5.73;91.47;101711.31;5016104;28;20140;-44
2022/02/22 02:06:46;;;;;;;30.95;7.53;;;;;;;5.72;91.56;101704.25;5019134;28;20461;-45
2022/02/22 02:09:14;;;;;;;29.30;7.55;;;;;;;5.73;91.53;101716.72;5034919;28;20045;-45
2022/02/22 02:11:46;;;;;;;33.80;7.35;;;;;;;5.72;91.96;101721.31;5035855;28;20451;-47
2022/02/22 02:14:14;;;;;;;33.60;7.72;;;;;;;5.74;91.69;101729.19;5034090;28;20567;-44
2022/02/22 02:16:44;;;;;;;30.42;7.53;;;;;;;5.73;91.76;101735.66;5024221;28;20423;-46
2022/02/22 02:19:13;;;;;;;32.25;7.57;;;;;;;5.73;91.90;101736.50;5028481;28;20419;-47
2022/02/22 02:21:42;;;;;;;29.33;8.00;;;;;;;5.73;91.88;101732.97;5018049;28;20084;-43
2022/02/22 02:24:20;;;;;;;35.80;7.97;;;;;;;5.72;91.75;101729.44;5033440;28;20045;-45
2022/02/22 02:26:49;;;;;;;32.72;7.63;;;;;;;5.72;91.71;101731.28;5027133;28;20068;-47
2022/02/22 02:29:22;;;;;;;29.02;6.75;;;;;;;5.70;91.59;101722.56;5014321;28;20053;-46
2022/02/22 02:31:51;;;;;;;27.95;7.20;;;;;;;5.69;91.64;101729.00;5015466;28;20042;-46
2022/02/22 02:34:26;;;;;;;31.52;7.07;;;;;;;5.70;91.75;101733.38;5015538;28;20046;-48
2022/02/22 02:36:54;;;;;;;30.38;7.43;;;;;;;5.69;91.82;101726.31;5033527;28;20057;-45
2022/02/22 02:39:22;;;;;;;33.25;7.18;;;;;;;5.68;91.74;101728.19;5015954;28;20128;-44
2022/02/22 02:41:50;;;;;;;35.78;7.75;;;;;;;5.68;91.96;101730.06;5015008;28;20051;-45
2022/02/22 02:44:21;;;;;;;32.30;7.97;;;;;;;5.65;91.62;101727.78;5015183;28;20037;-44
2022/02/22 02:46:49;;;;;;;31.38;8.07;;;;;;;5.63;91.64;101729.84;5025312;28;20040;-48
2022/02/22 02:49:18;;;;;;;28.52;6.95;;;;;;;5.60;92.00;101739.22;5034360;28;20106;-45
2022/02/22 02:51:46;;;;;;;35.90;7.43;;;;;;;5.59;91.82;101734.03;5034972;28;20041;-46
2022/02/22 02:54:14;;;;;;;29.92;7.00;;;;;;;5.59;91.96;101725.94;5032171;28;20045;-45
2022/02/22 02:56:42;;;;;;;30.25;7.30;;;;;;;5.59;91.92;101725.94;5016097;28;20038;-41
2022/02/22 02:59:10;;;;;;;27.35;7.53;;;;;;;5.55;91.97;101733.63;5013748;28;20081;-42
2022/02/22 03:01:41;;;;;;;29.75;7.35;;;;;;;5.58;92.31;101737.78;5014914;28;20048;-43
2022/02/22 03:04:11;;;;;;;23.55;6.45;;;;;;;5.61;91.95;101742.78;5014875;28;20042;-44
2022/02/22 03:06:39;;;;;;;27.85;6.57;;;;;;;5.62;91.76;101747.94;5027914;28;20069;-40
2022/02/22 03:09:07;;;;;;;25.70;7.20;;;;;;;5.63;91.61;101752.34;5013469;28;20053;-42
2022/02/22 03:11:35;;;;;;;30.02;7.47;;;;;;;5.62;91.40;101755.25;5013469;28;20053;-42
2022/02/22 03:14:03;;;;;;;25.80;7.75;;;;;;;5.61;91.66;101767.09;5016132;28;20404;-42
2022/02/22 03:16:31;;;;;;;26.30;7.25;;;;;;;5.58;91.43;101762.97;5014217;28;20076;-45
2022/02/22 03:19:02;;;;;;;27.52;7.00;;;;;;;5.58;91.91;101762.97;5013088;28;20485;-43
2022/02/22 03:21:33;;;;;;;30.05;6.60;;;;;;;5.59;91.89;101759.19;5014308;28;20117;-48
2022/02/22 03:24:02;;;;;;;27.45;6.70;;;;;;;5.59;91.75;101752.97;5015361;28;20038;-44
2022/02/22 03:26:30;;;;;;;23.98;6.22;;;;;;;5.59;91.88;101753.78;5032587;28;20112;-44
2022/02/22 03:28:59;;;;;;;22.65;6.13;;;;;;;5.61;91.78;101750.88;5033037;28;20136;-42
2022/02/22 03:31:29;;;;;;;28.20;7.57;;;;;;;5.62;91.93;101763.34;5034316;28;20467;-46
2022/02/22 03:33:57;;;;;;;26.98;6.60;;;;;;;5.63;91.75;101770.41;5032771;28;20056;-44
2022/02/22 03:36:25;;;;;;;32.47;7.05;;;;;;;5.61;92.01;101767.09;5030606;28;20496;-46
2022/02/22 03:38:56;;;;;;;33.20;8.25;;;;;;;5.59;91.94;101759.19;5034019;28;20045;-41
2022/02/22 03:41:27;;;;;;;23.33;6.43;;;;;;;5.59;92.24;101758.38;5032867;28;20045;-45
2022/02/22 03:43:55;;;;;;;26.50;7.43;;;;;;;5.57;92.29;101758.56;5033006;28;20578;-43
2022/02/22 03:46:22;;;;;;;27.58;7.63;;;;;;;5.57;92.63;101761.28;5014980;28;20107;-45
2022/02/22 03:48:50;;;;;;;28.58;7.15;;;;;;;5.55;92.57;101758.78;5013854;28;20060;-45
2022/02/22 03:51:18;;;;;;;33.83;7.55;;;;;;;5.53;92.96;101760.88;5013879;28;20420;-44
2022/02/22 03:53:45;;;;;;;28.42;7.03;;;;;;;5.52;93.18;101761.91;5014029;28;20136;-44
2022/02/22 03:56:13;;;;;;;25.02;7.13;;;;;;;5.53;93.20;101765.44;5018828;28;20044;-44
2022/02/22 03:58:43;;;;;;;27.40;6.38;;;;;;;5.51;93.49;101762.97;5032091;28;20496;-45
2022/02/22 04:01:10;;;;;;;33.10;7.50;;;;;;;5.51;93.57;101762.13;5033469;28;20500;-44
2022/02/22 04:03:38;;;;;;;31.55;7.68;;;;;;;5.50;93.96;101766.69;5023970;28;20137;-45
2022/02/22 04:06:06;;;;;;;31.92;7.40;;;;;;;5.49;94.04;101764.22;5013901;28;20045;-45
2022/02/22 04:08:33;;;;;;;29.48;6.78;;;;;;;5.49;94.04;101765.03;5014362;28;20457;-45
2022/02/22 04:11:01;;;;;;;32.88;6.93;;;;;;;5.49;94.09;101767.75;5013705;28;20046;-41
2022/02/22 04:13:29;;;;;;;29.65;6.70;;;;;;;5.48;94.59;101758.00;5014365;28;20042;-41
2022/02/22 04:15:57;;;;;;;28.80;6.90;;;;;;;5.50;94.35;101761.28;5014023;28;20528;-42
2022/02/22 04:18:24;;;;;;;26.35;7.07;;;;;;;5.49;94.39;101765.03;5013143;28;20134;-44
2022/02/22 04:20:52;;;;;;;25.88;6.43;;;;;;;5.48;94.58;101763.41;5013675;28;20456;-44
2022/02/22 04:23:20;;;;;;;27.83;6.57;;;;;;;5.48;94.70;101758.00;5013556;28;20133;-45
2022/02/22 04:25:49;;;;;;;32.00;7.72;;;;;;;5.48;94.92;101763.41;5018892;28;20583;-45
2022/02/22 04:28:17;;;;;;;26.58;6.30;;;;;;;5.48;94.91;101771.50;5013497;28;20052;-46
2022/02/22 04:30:45;;;;;;;26.40;6.38;;;;;;;5.51;94.99;101781.06;5013653;28;20050;-45
2022/02/22 04:33:13;;;;;;;26.05;6.43;;;;;;;5.53;94.97;101771.69;5013613;28;20045;-45
2022/02/22 04:35:41;;;;;;;28.20;7.15;;;;;;;5.54;94.79;101786.84;5015526;28;20121;-44
2022/02/22 04:38:09;;;;;;;29.38;6.85;;;;;;;5.55;94.37;101787.69;5013114;28;20504;-44
2022/02/22 04:40:37;;;;;;;26.50;6.18;;;;;;;5.54;94.54;101792.28;5013303;28;20115;-41
2022/02/22 04:43:04;;;;;;;28.55;6.45;;;;;;;5.54;94.35;101794.16;5014066;28;20042;-44
2022/02/22 04:45:32;;;;;;;27.50;6.18;;;;;;;5.52;94.40;101783.53;5016293;28;20127;-46
2022/02/22 04:48:00;;;;;;;27.20;6.85;;;;;;;5.52;94.42;101778.13;5012881;28;20128;-42
2022/02/22 04:50:29;;;;;;;27.48;6.53;;;;;;;5.51;94.41;101773.78;5012001;28;20049;-44
2022/02/22 04:52:57;;;;;;;28.65;6.45;;;;;;;5.51;94.37;101775.66;5013294;28;20046;-43
2022/02/22 04:55:24;;;;;;;23.67;6.25;;;;;;;5.51;94.20;101779.19;5026730;28;20128;-42
2022/02/22 04:57:52;;;;;;;29.75;6.93;;;;;;;5.50;94.13;101782.09;5030943;28;20041;-41
2022/02/22 05:00:19;;;;;;;24.88;6.70;;;;;;;5.48;94.04;101784.16;5048319;28;20064;-42
2022/02/22 05:02:47;;;;;;;26.77;6.90;;;;;;;5.45;94.20;101785.41;5033035;28;20056;-43
2022/02/22 05:05:15;;;;;;;26.05;7.22;;;;;;;5.44;94.50;101782.94;5027122;28;20125;-42
2022/02/22 05:07:42;;;;;;;28.48;7.18;;;;;;;5.42;94.42;101785.03;5032774;28;20065;-47
2022/02/22 05:10:10;;;;;;;28.65;6.32;;;;;;;5.41;94.67;101784.19;5020510;28;20042;-43
2022/02/22 05:12:38;;;;;;;25.65;6.80;;;;;;;5.41;94.56;101781.50;5011861;28;20048;-45
2022/02/22 05:15:06;;;;;;;27.83;7.40;;;;;;;5.40;94.48;101781.69;5014771;28;20115;-45
2022/02/22 05:17:34;;;;;;;28.10;7.68;;;;;;;5.39;94.45;101788.13;5013722;28;20415;-45
2022/02/22 05:20:08;;;;;;;20.10;6.15;;;;;;;5.37;94.53;101777.53;5013217;28;20104;-44
2022/02/22 05:22:43;;;;;;;29.95;7.00;;;;;;;5.37;94.72;101782.13;5013582;28;20046;-44
2022/02/22 05:25:13;;;;;;;27.85;6.47;;;;;;;5.37;94.84;101782.13;5019890;28;20037;-45
2022/02/22 05:27:41;;;;;;;27.17;7.03;;;;;;;5.36;94.50;101785.84;5034558;28;20132;-46
2022/02/22 05:30:11;;;;;;;30.25;7.70;;;;;;;5.34;94.42;101783.38;5034905;28;20081;-46
2022/02/22 05:32:39;;;;;;;24.02;6.93;;;;;;;5.32;94.45;101785.44;5036157;28;20038;-45
2022/02/22 05:35:09;;;;;;;26.45;6.75;;;;;;;5.30;94.67;101787.53;5034567;28;20037;-45
2022/02/22 05:37:37;;;;;;;29.08;6.75;;;;;;;5.28;94.48;101790.41;5017638;28;20404;-45
2022/02/22 05:40:06;;;;;;;27.58;6.60;;;;;;;5.26;94.57;101792.50;4999107;28;20064;-44
2022/02/22 05:42:34;;;;;;;28.25;6.25;;;;;;;5.25;94.93;101793.56;5015271;28;20049;-47
2022/02/22 05:45:02;;;;;;;19.70;5.78;;;;;;;5.25;94.71;101795.44;5020374;28;20455;-45
2022/02/22 05:47:30;;;;;;;27.33;7.22;;;;;;;5.24;94.99;101791.03;5016066;28;20045;-45
2022/02/22 05:49:57;;;;;;;22.90;6.32;;;;;;;5.25;95.06;101798.13;4998619;28;20037;-45
2022/02/22 05:52:25;;;;;;;27.67;7.88;;;;;;;5.23;95.16;101792.91;5016149;28;20052;-44
2022/02/22 05:54:53;;;;;;;23.00;5.82;;;;;;;5.23;95.10;101781.28;5017295;28;20400;-48
2022/02/22 05:57:24;;;;;;;28.10;6.68;;;;;;;5.20;95.12;101787.94;5018795;28;20076;-47
2022/02/22 05:59:52;;;;;;;31.02;6.95;;;;;;;5.16;95.19;101785.88;5027849;28;20045;-49
2022/02/22 06:02:20;;;;;;;29.73;6.15;;;;;;;5.11;95.59;101786.50;5015740;28;20042;-47
2022/02/22 06:04:48;;;;;;;30.60;7.05;;;;;;;5.09;95.48;101789.38;5014745;28;20046;-45
2022/02/22 06:07:20;;;;;;;28.08;6.95;;;;;;;5.08;95.84;101793.13;5016303;28;20125;-46
2022/02/22 06:09:48;;;;;;;23.35;6.07;;;;;;;5.10;95.63;101787.53;4321067;28;10000181;-46
2022/02/22 06:12:18;;;;;;;27.05;6.10;;;;;;;5.11;95.51;101790.00;5012869;28;20104;-46
2022/02/22 06:14:46;;;;;;;22.77;5.40;;;;;;;5.13;95.51;101800.63;5012637;28;20551;-45
2022/02/22 06:17:14;;;;;;;21.73;5.80;;;;;;;5.15;95.18;101806.66;5012352;28;20096;-44
2022/02/22 06:19:42;;;;;;;29.67;6.35;;;;;;;5.18;95.04;101797.31;5010488;28;20053;-45
2022/02/22 06:22:10;;;;;;;22.52;6.00;;;;;;;5.18;95.13;101794.59;5021706;28;20119;-46
2022/02/22 06:24:37;;;;;;;17.77;5.90;;;;;;;5.15;95.08;101801.25;5012380;28;20497;-44
2022/02/22 06:27:05;;;;;;;23.90;5.88;;;;;;;5.15;95.08;101805.78;5026905;28;20069;-43
2022/02/22 06:29:33;;;;;;;22.70;6.38;;;;;;;5.12;95.27;101794.41;5030721;28;20050;-46
2022/02/22 06:32:01;;;;;;;18.30;5.10;;;;;;;5.20;95.69;101792.53;5045053;28;20124;-50
2022/02/22 06:34:28;;;;;;;22.80;5.95;;;;;;;5.23;95.29;101797.50;5030737;28;20412;-46
2022/02/22 06:36:56;;;;;;;19.20;5.00;;;;;;;5.26;95.61;101788.97;5021533;28;20675;-47
2022/02/22 06:39:25;;;;;;;21.70;5.10;;;;;;;5.26;94.81;101791.66;5010764;28;20050;-43
2022/02/22 06:41:53;;;;;;;29.50;6.47;;;;;;;5.24;95.00;101799.16;5012869;28;20045;-44
2022/02/22 06:44:21;;;;;;;24.73;6.07;;;;;;;5.19;94.98;101797.06;5011887;28;20722;-42
2022/02/22 06:46:49;;;;;;;25.00;6.32;;;;;;;5.11;95.28;101806.22;5024169;28;20053;-44
2022/02/22 06:49:17;;;;;;;25.00;6.50;;;;;;;5.07;95.54;101804.97;5011812;28;20514;-43
2022/02/22 06:51:44;;;;;;;19.55;5.65;;;;;;;5.05;95.86;101803.50;5013060;28;20053;-43
2022/02/22 06:54:12;;;;;;;26.08;6.25;;;;;;;5.03;95.53;101798.34;5011339;28;20042;-45
2022/02/22 06:56:40;;;;;;;26.05;6.32;;;;;;;5.03;95.69;101801.03;5018685;28;20556;-45
2022/02/22 06:59:07;;;;;;;23.27;5.47;;;;;;;5.03;95.99;101802.91;5028633;28;20049;-44
2022/02/22 07:01:35;;;;;;;24.70;5.90;;;;;;;5.03;95.91;101806.44;5031685;28;20034;-43
2022/02/22 07:04:04;;;;;;;26.95;6.32;;;;;;;5.04;96.06;101802.69;5036347;28;20045;-45
2022/02/22 07:06:33;;;;;;;24.63;6.20;;;;;;;5.05;95.91;101800.81;5029535;28;20105;-45
2022/02/22 07:09:01;;;;;;;24.70;5.93;;;;;;;5.12;96.11;101788.13;5012993;28;20096;-45
2022/02/22 07:11:30;;;;;;;17.63;5.60;;;;;;;5.19;95.68;101791.66;5014718;28;20041;-45
2022/02/22 07:13:58;;;;;;;23.75;5.82;;;;;;;5.26;95.57;101786.28;5014503;28;20080;-45
2022/02/22 07:16:25;;;;;;;19.80;5.70;;;;;;;5.25;95.41;101784.63;5023331;28;20044;-44
2022/02/22 07:18:53;;;;;;;23.98;6.07;;;;;;;5.27;95.75;101783.38;5033667;28;20415;-46
2022/02/22 07:21:21;;;;;;;24.48;6.00;;;;;;;5.30;95.87;101792.94;5028568;28;20125;-45
2022/02/22 07:23:48;;;;;;;25.77;6.22;;;;;;;5.35;95.57;101790.41;5023151;28;20116;-49
2022/02/22 07:26:19;;;;;;;22.88;6.20;;;;;;;5.36;95.86;101783.16;5031684;28;20034;-47
2022/02/22 07:28:47;;;;;;;22.85;6.55;;;;;;;5.40;95.94;101787.09;5033392;28;20045;-43
2022/02/22 07:31:14;;;;;;;27.60;6.20;;;;;;;5.40;96.09;101773.59;5033895;28;20041;-45
2022/02/22 07:33:42;;;;;;;24.27;6.55;;;;;;;5.47;96.35;101785.22;5028407;28;20038;-45
2022/02/22 07:36:10;;;;;;;20.90;6.25;;;;;;;5.52;96.59;101782.72;5018730;28;20073;-46
2022/02/22 07:38:38;;;;;;;20.55;5.72;;;;;;;5.50;96.35;101782.91;5031887;28;20057;-45
2022/02/22 07:41:06;;;;;;;28.63;7.93;;;;;;;5.76;100.00;101771.22;5029895;28;20124;-44
2022/02/22 07:43:33;;;;;;;24.95;7.25;;;;;;;5.67;97.30;101771.66;5013660;28;20042;-45
2022/02/22 07:46:01;;;;;;;39.25;8.43;;;;;;;5.75;100.00;101761.44;5011743;28;20049;-44
2022/02/22 07:48:29;;;;;;;36.63;9.00;;;;;;;5.94;100.00;101757.03;5013403;28;20050;-46
2022/02/22 07:50:56;;;;;;;28.45;7.50;;;;;;;6.01;100.00;101756.16;5014712;28;20042;-47
2022/02/22 07:53:24;;;;;;;30.17;7.28;;;;;;;6.01;100.00;101742.66;5013786;28;20536;-42
2022/02/22 07:55:53;;;;;;;22.23;6.15;;;;;;;5.87;99.41;101747.25;5013624;28;20052;-47
2022/02/22 07:58:21;;;;;;;22.98;6.95;;;;;;;5.85;100.00;101741.25;5013757;28;20045;-46
2022/02/22 08:00:49;;;;;;;23.10;6.82;;;;;;;5.83;99.55;101740.63;5014281;28;20121;-45
2022/02/22 08:03:16;;;;;;;24.55;6.85;;;;;;;5.93;100.00;101730.16;5013638;28;20108;-46
2022/02/22 08:05:44;;;;;;;22.42;6.13;;;;;;;5.97;100.00;101734.16;5013542;28;20121;-45
2022/02/22 08:08:12;;;;;;;22.85;6.75;;;;;;;5.87;98.44;101729.16;5013529;28;20053;-46
2022/02/22 08:10:41;;;;;;;23.48;6.50;;;;;;;5.84;99.00;101734.16;5013649;28;20121;-45
2022/02/22 08:13:08;;;;;;;22.42;6.38;;;;;;;5.92;99.76;101731.22;5033033;28;20038;-46
2022/02/22 08:15:36;;;;;;;21.92;6.20;;;;;;;5.97;99.05;101729.56;5033168;28;20045;-41
2022/02/22 08:18:04;;;;;;;24.20;7.28;;;;;;;5.96;99.62;101724.34;5033834;28;20034;-47
2022/02/22 08:20:31;;;;;;;24.83;6.65;;;;;;;5.90;97.70;101717.91;5030402;28;20508;-49
2022/02/22 08:23:00;;;;;;;21.63;6.45;;;;;;;6.04;98.38;101712.44;5013732;28;20083;-46
2022/02/22 08:25:28;;;;;;;22.90;6.50;;;;;;;5.96;98.18;101722.50;5013730;28;20068;-45
2022/02/22 08:27:56;;;;;;;20.58;6.20;;;;;;;5.92;97.68;101723.94;5012173;28;20481;-45
2022/02/22 08:30:23;;;;;;;23.58;6.07;;;;;;;6.04;99.59;101715.16;5013976;28;20046;-45
2022/02/22 08:32:52;;;;;;;23.92;6.72;;;;;;;6.11;99.92;101703.28;5013849;28;20133;-45
2022/02/22 08:35:20;;;;;;;23.33;6.90;;;;;;;6.13;98.72;101721.97;5013986;28;20044;-45
2022/02/22 08:37:50;;;;;;;21.00;6.10;;;;;;;6.19;100.00;101702.19;5013196;28;20142;-46
2022/02/22 08:40:18;;;;;;;26.80;7.47;;;;;;;6.26;100.00;101702.16;5018288;28;20038;-45
2022/02/22 08:42:46;;;;;;;23.48;6.65;;;;;;;6.19;100.00;101699.47;5032819;28;20049;-44
2022/02/22 08:45:24;;;;;;;21.52;6.93;;;;;;;6.21;100.00;101708.22;5033117;28;20557;-44
2022/02/22 08:47:52;;;;;;;26.45;7.63;;;;;;;6.17;99.70;101712.41;5031531;28;20049;-45
2022/02/22 08:50:21;;;;;;;28.17;7.28;;;;;;;6.44;100.00;101696.00;5030054;28;20041;-46
2022/02/22 08:52:49;;;;;;;24.02;6.18;;;;;;;6.40;100.00;101696.44;5032753;28;20049;-41
2022/02/22 08:55:17;;;;;;;22.02;6.63;;;;;;;6.25;100.00;101693.19;5031846;28;20087;-47
2022/02/22 08:57:44;;;;;;;26.67;6.97;;;;;;;6.25;100.00;101695.88;5034442;28;20044;-47
2022/02/22 09:00:14;;;;;;;25.55;6.68;;;;;;;6.26;100.00;101692.16;5030131;28;20404;-44
2022/02/22 09:02:42;;;;;;;23.70;6.90;;;;;;;6.31;100.00;101692.31;5017030;28;20053;-44
2022/02/22 09:05:10;;;;;;;21.65;6.63;;;;;;;6.36;100.00;101689.78;5016970;28;20603;-46
2022/02/22 09:07:38;;;;;;;23.77;6.85;;;;;;;6.31;100.00;101680.69;5017082;28;20448;-47
2022/02/22 09:10:07;;;;;;;24.00;7.03;;;;;;;6.60;100.00;101673.81;5017684;28;20519;-45
2022/02/22 09:12:35;;;;;;;26.67;8.07;;;;;;;6.95;100.00;101681.41;5031933;28;20121;-47
2022/02/22 09:15:07;;;;;;;21.40;6.45;;;;;;;6.98;100.00;101679.09;5016837;28;20046;-42
2022/02/22 09:17:35;;;;;;;22.40;5.97;;;;;;;6.71;100.00;101669.53;5015568;28;20459;-47
2022/02/22 09:20:08;;;;;;;21.75;6.60;;;;;;;6.71;100.00;101659.56;5023845;28;20046;-45
2022/02/22 09:22:36;;;;;;;17.20;5.75;;;;;;;6.87;100.00;101663.56;5036362;28;20128;-45
2022/02/22 09:25:06;;;;;;;22.73;6.93;;;;;;;7.00;100.00;101662.63;5036269;28;20041;-46
2022/02/22 09:27:34;;;;;;;18.58;6.35;;;;;;;7.10;100.00;101659.41;5036351;28;20057;-47
2022/02/22 09:30:01;;;;;;;22.15;6.43;;;;;;;7.09;100.00;101652.31;4686490;28;10000445;-46
2022/02/22 09:32:29;;;;;;;21.38;6.63;;;;;;;7.12;100.00;101644.56;5017003;28;20046;-45
2022/02/22 09:34:57;;;;;;;22.80;5.90;;;;;;;7.12;100.00;101636.44;5013180;28;20042;-46
2022/02/22 09:37:25;;;;;;;21.33;7.18;;;;;;;6.91;99.00;101637.69;5013025;28;20057;-46
2022/02/22 09:39:52;;;;;;;18.27;5.75;;;;;;;6.99;100.00;101636.56;5020732;28;20053;-47
2022/02/22 09:42:20;;;;;;;27.15;6.93;;;;;;;7.28;100.00;101628.75;5032849;28;20057;-46
2022/02/22 09:44:48;;;;;;;24.35;6.22;;;;;;;7.25;100.00;101633.56;5031419;28;20045;-45
2022/02/22 09:47:16;;;;;;;27.80;7.70;;;;;;;7.27;100.00;101624.41;5032608;28;20103;-47
2022/02/22 09:49:44;;;;;;;25.13;6.72;;;;;;;7.12;100.00;101636.44;5012864;28;20045;-46
2022/02/22 09:52:14;;;;;;;21.90;6.63;;;;;;;7.18;100.00;101627.41;5031530;28;20045;-45
2022/02/22 09:54:42;;;;;;;21.88;6.93;;;;;;;7.00;100.00;101633.66;5032352;28;20755;-46
2022/02/22 09:57:10;;;;;;;26.38;7.65;;;;;;;6.95;97.62;101627.22;5032406;28;20115;-46
2022/02/22 09:59:38;;;;;;;28.33;8.13;;;;;;;6.94;99.20;101633.69;5024431;28;20463;-45
2022/02/22 10:02:07;;;;;;;27.42;7.82;;;;;;;6.95;98.79;101646.19;5012914;28;20056;-45
2022/02/22 10:04:42;;;;;;;24.58;6.30;;;;;;;6.97;98.22;101642.19;5014196;28;20050;-47
2022/02/22 10:07:11;;;;;;;24.67;6.85;;;;;;;6.91;98.29;101645.81;5027637;28;20041;-45
2022/02/22 10:09:59;;;;;;;23.02;6.57;;;;;;;6.95;99.45;101659.72;5012812;28;20096;-47
2022/02/22 10:12:36;;;;;;;26.48;6.80;;;;;;;6.87;97.78;101651.91;5011566;28;20118;-46
2022/02/22 10:15:06;;;;;;;23.77;7.45;;;;;;;6.81;96.24;101654.44;5012642;28;20041;-47
2022/02/22 10:17:42;;;;;;;26.40;7.60;;;;;;;6.73;95.64;101638.47;5030058;28;20042;-45
2022/02/22 10:20:11;;;;;;;28.73;7.35;;;;;;;6.70;95.25;101657.06;5026472;28;20635;-46
2022/02/22 10:22:50;;;;;;;23.58;7.13;;;;;;;6.63;94.78;101651.69;5012245;28;20152;-48
2022/02/22 10:25:19;;;;;;;27.73;7.68;;;;;;;6.61;95.53;101649.22;5012250;28;20058;-47
2022/02/22 10:27:52;;;;;;;30.33;7.88;;;;;;;6.65;95.49;101637.94;5012192;28;20159;-47
2022/02/22 10:30:27;;;;;;;26.20;8.50;;;;;;;6.67;94.86;101627.72;5011611;28;20050;-47
2022/02/22 10:32:56;;;;;;;22.35;7.10;;;;;;;6.67;94.81;101606.06;5018771;28;20486;-47
2022/02/22 10:35:32;;;;;;;23.85;6.82;;;;;;;6.95;98.42;101594.72;5030541;28;20044;-45
2022/02/22 10:38:31;;;;;;;21.73;6.82;;;;;;;7.16;97.83;101590.72;5031614;28;20073;-48
2022/02/22 10:41:14;;;;;;;20.90;5.70;;;;;;;7.30;97.94;101583.28;5012230;28;20072;-46
2022/02/22 10:43:54;;;;;;;19.25;5.60;;;;;;;7.17;97.16;101570.72;5011288;28;20148;-46
2022/02/22 10:46:32;;;;;;;22.73;7.00;;;;;;;7.37;99.16;101563.16;5013593;28;20076;-45
2022/02/22 10:49:03;;;;;;;25.40;6.80;;;;;;;7.36;96.97;101566.09;5027820;28;20104;-44
2022/02/22 10:51:39;;;;;;;19.27;6.20;;;;;;;7.33;98.62;101559.25;5031773;28;20500;-46
2022/02/22 10:54:08;;;;;;;21.08;6.03;;;;;;;7.31;97.61;101558.66;5013274;28;20152;-47
2022/02/22 10:56:36;;;;;;;28.02;8.50;;;;;;;7.16;95.93;101564.44;5011931;28;20461;-45
2022/02/22 10:59:04;;;;;;;32.33;8.88;;;;;;;7.12;95.16;101544.31;5020884;28;20499;-46
2022/02/22 11:01:34;;;;;;;34.00;8.55;;;;;;;7.07;95.39;101541.44;5030253;28;20128;-47
2022/02/22 11:04:02;;;;;;;29.42;8.13;;;;;;;7.23;98.25;101540.81;5017527;28;20386;-46
2022/02/22 11:06:32;;;;;;;36.97;9.18;;;;;;;7.39;99.60;101530.41;5011616;28;20052;-47
2022/02/22 11:09:00;;;;;;;25.77;7.70;;;;;;;7.57;100.00;101533.06;4995044;28;20373;-44
2022/02/22 11:11:52;;;;;;;33.30;8.93;;;;;;;7.50;97.51;101547.78;5012148;28;20068;-47
2022/02/22 11:14:30;;;;;;;31.95;8.50;;;;;;;7.84;98.26;101525.38;5013451;28;20053;-48
2022/02/22 11:17:03;;;;;;;17.92;5.28;;;;;;;7.80;100.00;101551.31;5030869;28;20124;-47
2022/02/22 11:19:39;;;;;;;37.72;10.80;;;;;;;7.60;97.77;101557.03;5018393;28;20096;-46
2022/02/22 11:22:17;;;;;;;16.48;4.88;;;;;;;7.63;100.00;101544.88;5024700;28;20049;-43
2022/02/22 11:24:48;;;;;;;32.92;9.10;;;;;;;7.85;99.22;101535.16;5007652;28;20157;-45
2022/02/22 11:27:33;;;;;;;28.27;7.85;;;;;;;7.69;99.14;101549.38;5011135;28;20057;-46
2022/02/22 11:30:06;;;;;;;27.90;7.78;;;;;;;7.50;99.43;101551.31;5010981;28;20639;-48
2022/02/22 11:33:08;;;;;;;17.88;5.20;;;;;;;7.68;100.00;101540.41;5011109;28;20125;-46